createdAt,value
2023-05-14T00:04:14.416Z,68.21
2023-05-14T00:09:17.451Z,67.97
2023-05-14T00:14:20.357Z,69.22
2023-05-14T00:19:23.319Z,69.52
2023-05-14T00:24:26.294Z,69.01
2023-05-14T00:29:29.410Z,69.50
2023-05-14T00:34:32.267Z,69.89
2023-05-14T00:39:35.230Z,70.01
2023-05-14T00:44:38.068Z,70.33
2023-05-14T00:49:42.170Z,70.83
2023-05-14T00:54:48.243Z,71.73
2023-05-14T00:59:51.131Z,74.03
2023-05-14T01:04:54.909Z,74.93
2023-05-14T01:10:08.550Z,73.49
2023-05-14T01:15:21.358Z,72.71
2023-05-14T01:20:24.480Z,72.17
2023-05-14T01:25:27.852Z,72.71
2023-05-14T01:30:36.729Z,73.03
2023-05-14T01:35:40.663Z,73.54
2023-05-14T01:40:46.070Z,74.82
2023-05-14T01:45:48.880Z,74.48
2023-05-14T01:50:52.066Z,73.88
2023-05-14T01:55:54.885Z,74.88
2023-05-14T02:00:57.874Z,75.86
2023-05-14T02:06:00.913Z,75.29
2023-05-14T02:11:03.763Z,75.30
2023-05-14T02:16:07.058Z,75.61
2023-05-14T02:21:09.931Z,76.25
2023-05-14T02:26:12.881Z,77.93
2023-05-14T02:31:17.706Z,78.71
2023-05-14T02:36:20.651Z,79.07
2023-05-14T02:41:23.486Z,78.75
2023-05-14T02:46:26.450Z,78.63
2023-05-14T02:51:29.462Z,78.96
2023-05-14T02:56:32.250Z,79.72
2023-05-14T03:01:35.136Z,80.18
2023-05-14T03:06:38.325Z,80.26
2023-05-14T03:11:41.361Z,79.39
2023-05-14T03:16:44.246Z,79.00
2023-05-14T03:21:47.248Z,79.63
2023-05-14T03:26:50.032Z,80.63
2023-05-14T03:31:54.427Z,80.17
2023-05-14T03:36:57.669Z,79.95
2023-05-14T03:42:00.674Z,78.67
2023-05-14T03:47:03.917Z,78.37
2023-05-14T03:52:06.940Z,77.88
2023-05-14T03:57:09.859Z,77.14
2023-05-14T04:02:12.915Z,76.53
2023-05-14T04:07:15.840Z,75.87
2023-05-14T04:12:18.775Z,75.35
2023-05-14T04:17:21.602Z,74.88
2023-05-14T04:22:24.490Z,74.35
2023-05-14T04:27:28.723Z,73.46
2023-05-14T04:32:31.659Z,72.57
2023-05-14T04:37:34.534Z,71.97
2023-05-14T04:42:37.673Z,71.06
2023-05-14T04:47:42.451Z,70.64
2023-05-14T04:52:45.713Z,69.73
2023-05-14T04:57:49.308Z,68.93
2023-05-14T05:02:52.342Z,67.83
2023-05-14T05:07:55.523Z,65.86
2023-05-14T05:12:58.357Z,63.06
2023-05-14T05:18:01.259Z,63.60
2023-05-14T05:23:04.160Z,62.23
2023-05-14T05:28:07.127Z,60.60
2023-05-14T05:33:10.127Z,60.21
2023-05-14T05:38:15.114Z,59.40
2023-05-14T05:43:18.107Z,58.31
2023-05-14T05:48:21.826Z,57.43
2023-05-14T05:53:24.655Z,56.60
2023-05-14T05:58:27.488Z,55.32
2023-05-14T06:03:30.400Z,54.01
2023-05-14T06:08:34.267Z,53.54
2023-05-14T06:13:37.639Z,52.90
2023-05-14T06:18:41.020Z,50.95
2023-05-14T06:23:44.470Z,50.33
2023-05-14T06:28:47.783Z,50.22
2023-05-14T06:33:50.735Z,49.49
2023-05-14T06:38:53.593Z,47.95
2023-05-14T06:43:56.475Z,46.40
2023-05-14T06:48:59.734Z,45.38
2023-05-14T06:54:02.714Z,45.26
2023-05-14T06:59:05.634Z,44.42
2023-05-14T07:04:08.541Z,43.86
2023-05-14T07:09:11.401Z,41.53
2023-05-14T07:14:14.325Z,40.57
2023-05-14T07:19:17.313Z,40.38
2023-05-14T07:24:20.382Z,37.31
2023-05-14T07:29:25.523Z,36.40
2023-05-14T07:34:28.450Z,35.25
2023-05-14T07:39:31.377Z,34.16
2023-05-14T07:44:34.157Z,33.72
2023-05-14T07:49:37.051Z,31.70
2023-05-14T07:54:39.909Z,31.01
2023-05-14T07:59:42.776Z,29.50
2023-05-14T08:04:45.740Z,29.87
2023-05-14T08:09:48.646Z,30.52
2023-05-14T08:14:52.134Z,29.90
2023-05-14T08:19:54.988Z,28.68
2023-05-14T08:24:57.820Z,29.39
2023-05-14T08:30:00.845Z,28.42
2023-05-14T08:35:04.654Z,28.02
2023-05-14T08:40:09.338Z,28.58
2023-05-14T08:45:27.445Z,27.70
2023-05-14T08:50:31.160Z,27.08
2023-05-14T08:55:36.662Z,27.08
2023-05-14T09:00:41.312Z,26.85
2023-05-14T09:05:45.948Z,25.81
2023-05-14T09:10:48.924Z,25.80
2023-05-14T09:15:53.278Z,26.14
2023-05-14T09:20:56.434Z,25.65
2023-05-14T09:25:59.361Z,25.76
2023-05-14T09:31:03.398Z,25.51
2023-05-14T09:36:07.086Z,25.51
2023-05-14T09:41:10.895Z,25.50
2023-05-14T09:46:14.694Z,24.60
2023-05-14T09:51:18.278Z,24.63
2023-05-14T09:56:22.178Z,24.56
2023-05-14T10:01:26.916Z,24.17
2023-05-14T10:06:37.442Z,24.41
2023-05-14T10:11:45.688Z,24.63
2023-05-14T10:16:51.857Z,24.98
2023-05-14T10:22:07.188Z,24.74
2023-05-14T10:27:10.572Z,24.25
2023-05-14T10:32:14.993Z,23.39
2023-05-14T10:37:26.081Z,23.28
2023-05-14T10:42:45.232Z,23.58
2023-05-14T10:47:48.982Z,23.38
2023-05-14T10:52:52.918Z,23.01
2023-05-14T10:57:59.244Z,23.06
2023-05-14T11:03:06.536Z,22.91
2023-05-14T11:08:12.516Z,22.61
2023-05-14T11:13:18.958Z,22.88
2023-05-14T11:18:36.971Z,22.35
2023-05-14T11:23:39.795Z,22.74
2023-05-14T11:28:42.692Z,23.12
2023-05-14T11:33:45.758Z,23.34
2023-05-14T11:38:51.896Z,23.47
2023-05-14T11:43:55.032Z,23.92
2023-05-14T11:48:57.824Z,24.19
2023-05-14T11:54:00.758Z,25.05
2023-05-14T11:59:03.572Z,26.05
2023-05-14T12:04:06.748Z,26.50
2023-05-14T12:09:13.034Z,26.67
2023-05-14T12:14:21.775Z,26.27
2023-05-14T12:19:25.972Z,24.63
2023-05-14T12:24:29.555Z,24.67
2023-05-14T12:29:37.933Z,24.98
2023-05-14T12:34:40.798Z,25.36
2023-05-14T12:39:43.745Z,25.77
2023-05-14T12:44:46.730Z,25.81
2023-05-14T12:49:49.949Z,25.34
2023-05-14T12:54:53.037Z,25.45
2023-05-14T12:59:57.418Z,26.38
2023-05-14T13:05:07.850Z,27.37
2023-05-14T13:10:18.965Z,26.65
2023-05-14T13:15:23.499Z,26.06
2023-05-14T13:20:27.897Z,26.03
2023-05-14T13:25:30.977Z,25.81
2023-05-14T13:30:33.818Z,25.39
2023-05-14T13:35:36.795Z,25.09
2023-05-14T13:40:39.601Z,24.42
2023-05-14T13:45:42.616Z,24.69
2023-05-14T13:50:45.534Z,24.82
2023-05-14T13:55:50.346Z,24.61
2023-05-14T14:00:54.007Z,23.91
2023-05-14T14:05:56.931Z,24.40
2023-05-14T14:11:00.387Z,23.92
2023-05-14T14:16:03.680Z,23.88
2023-05-14T14:21:06.759Z,23.57
2023-05-14T14:26:09.713Z,23.26
2023-05-14T14:31:13.342Z,22.74
2023-05-14T14:36:16.326Z,22.15
2023-05-14T14:41:19.311Z,22.19
2023-05-14T14:46:22.370Z,22.50
2023-05-14T14:51:25.516Z,22.79
2023-05-14T14:56:28.341Z,23.23
2023-05-14T15:01:31.510Z,23.41
2023-05-14T15:06:34.571Z,23.13
2023-05-14T15:11:37.776Z,22.71
2023-05-14T15:16:42.086Z,22.37
2023-05-14T15:21:45.259Z,22.17
2023-05-14T15:26:50.567Z,22.17
2023-05-14T15:31:57.945Z,22.66
2023-05-14T15:37:03.082Z,22.42
2023-05-14T15:42:06.879Z,22.73
2023-05-14T15:47:09.685Z,22.94
2023-05-14T15:52:12.757Z,23.43
2023-05-14T15:57:17.914Z,23.42
2023-05-14T16:02:22.893Z,23.06
2023-05-14T16:07:25.930Z,22.72
2023-05-14T16:12:28.881Z,23.16
2023-05-14T16:17:32.889Z,23.14
2023-05-14T16:22:36.649Z,23.20
2023-05-14T16:27:39.573Z,22.94
2023-05-14T16:32:42.676Z,23.40
2023-05-14T16:37:45.997Z,23.65
2023-05-14T16:42:49.481Z,23.73
2023-05-14T16:47:52.709Z,23.76
2023-05-14T16:52:55.767Z,23.82
2023-05-14T16:57:58.680Z,24.00
2023-05-14T17:03:02.503Z,24.25
2023-05-14T17:08:05.934Z,24.48
2023-05-14T17:13:08.881Z,24.88
2023-05-14T17:18:29.816Z,25.10
2023-05-14T17:23:33.557Z,25.42
2023-05-14T17:28:36.468Z,25.51
2023-05-14T17:33:39.362Z,25.70
2023-05-14T17:38:42.363Z,25.88
2023-05-14T17:43:45.358Z,26.01
2023-05-14T17:48:48.267Z,26.33
2023-05-14T17:53:51.251Z,26.72
2023-05-14T17:58:54.218Z,26.94
2023-05-14T18:03:57.347Z,27.34
2023-05-14T18:09:00.208Z,28.01
2023-05-14T18:14:03.387Z,28.52
2023-05-14T18:19:06.471Z,29.36
2023-05-14T18:24:09.465Z,29.95
2023-05-14T18:29:12.301Z,31.89
2023-05-14T18:34:15.293Z,34.51
2023-05-14T18:39:18.171Z,34.88
2023-05-14T18:44:21.772Z,33.85
2023-05-14T18:49:24.680Z,34.49
2023-05-14T18:54:27.624Z,36.45
2023-05-14T18:59:30.690Z,38.10
2023-05-14T19:04:44.308Z,39.09
2023-05-14T19:09:53.962Z,37.67
2023-05-14T19:14:56.819Z,37.72
2023-05-14T19:20:00.027Z,39.76
2023-05-14T19:25:03.729Z,42.33
2023-05-14T19:30:08.897Z,41.31
2023-05-14T19:35:12.216Z,40.85
2023-05-14T19:40:15.317Z,40.82
2023-05-14T19:45:18.281Z,41.19
2023-05-14T19:50:21.181Z,41.87
2023-05-14T19:55:24.360Z,44.31
2023-05-14T20:00:31.937Z,46.51
2023-05-14T20:05:35.390Z,48.33
2023-05-14T20:10:38.922Z,47.12
2023-05-14T20:15:43.144Z,47.37
2023-05-14T20:20:46.067Z,50.33
2023-05-14T20:25:49.013Z,54.01
2023-05-14T20:30:52.390Z,52.19
2023-05-14T20:35:55.513Z,52.09
2023-05-14T20:40:58.571Z,54.10
2023-05-14T20:46:01.573Z,53.12
2023-05-14T20:51:06.541Z,53.27
2023-05-14T20:56:09.602Z,54.44
2023-05-14T21:01:12.552Z,53.23
2023-05-14T21:06:15.459Z,52.21
2023-05-14T21:11:18.328Z,52.57
2023-05-14T21:16:21.792Z,53.97
2023-05-14T21:21:24.760Z,55.42
2023-05-14T21:26:31.810Z,53.85
2023-05-14T21:31:34.675Z,55.81
2023-05-14T21:36:37.854Z,58.81
2023-05-14T21:41:40.668Z,60.37
2023-05-14T21:46:43.536Z,59.56
2023-05-14T21:51:46.856Z,58.49
2023-05-14T21:56:49.854Z,57.99
2023-05-14T22:02:06.361Z,57.19
2023-05-14T22:07:10.792Z,57.78
2023-05-14T22:12:13.733Z,57.68
2023-05-14T22:17:16.835Z,58.26
2023-05-14T22:22:19.732Z,58.14
2023-05-14T22:27:23.033Z,59.45
2023-05-14T22:32:26.487Z,60.69
2023-05-14T22:37:29.413Z,60.65
2023-05-14T22:42:32.246Z,61.06
2023-05-14T22:47:35.137Z,62.85
2023-05-14T22:52:39.510Z,63.56
2023-05-14T22:57:42.443Z,61.10
2023-05-14T23:02:45.458Z,60.54
2023-05-14T23:07:48.446Z,60.54
2023-05-14T23:12:51.342Z,62.01
2023-05-14T23:17:54.328Z,61.72
2023-05-14T23:22:57.303Z,61.75
2023-05-14T23:28:00.464Z,62.38
2023-05-14T23:33:03.410Z,61.79
2023-05-14T23:38:07.461Z,61.82
2023-05-14T23:43:10.287Z,61.74
2023-05-14T23:48:13.152Z,61.83
2023-05-14T23:53:16.074Z,61.93
2023-05-14T23:58:18.984Z,61.81
